createdAt,value
2023-01-08T00:04:31.701Z,100291.66
2023-01-08T00:09:23.639Z,100280.06
2023-01-08T00:14:17.860Z,100272.88
2023-01-08T00:19:11.608Z,100264.00
2023-01-08T00:24:04.890Z,100275.88
2023-01-08T00:28:56.344Z,100260.19
2023-01-08T00:33:49.874Z,100248.13
2023-01-08T00:38:44.115Z,100248.22
2023-01-08T00:43:36.175Z,100237.84
2023-01-08T00:48:31.606Z,100232.91
2023-01-08T00:53:26.117Z,100229.47
2023-01-08T00:58:19.042Z,100227.84
2023-01-08T01:03:10.551Z,100230.53
2023-01-08T01:08:00.807Z,100213.28
2023-01-08T01:12:53.977Z,100214.25
2023-01-08T01:17:46.595Z,100206.53
2023-01-08T01:22:38.441Z,100206.75
2023-01-08T01:27:32.758Z,100214.50
2023-01-08T01:32:26.141Z,100204.47
2023-01-08T01:37:17.981Z,100202.72
2023-01-08T01:42:35.603Z,100217.50
2023-01-08T01:47:33.017Z,100208.88
2023-01-08T01:52:25.902Z,100217.28
2023-01-08T01:57:19.123Z,100218.09
2023-01-08T02:02:12.845Z,100223.28
2023-01-08T02:07:16.660Z,100223.16
2023-01-08T02:12:25.567Z,100221.19
2023-01-08T02:17:23.524Z,100220.31
2023-01-08T02:22:30.459Z,100222.09
2023-01-08T02:27:29.543Z,100200.81
2023-01-08T02:32:21.387Z,100216.97
2023-01-08T02:37:14.472Z,100195.53
2023-01-08T02:42:15.432Z,100204.34
2023-01-08T02:47:14.282Z,100205.66
2023-01-08T02:52:09.648Z,100195.94
2023-01-08T02:57:03.872Z,100188.22
2023-01-08T03:01:58.734Z,100192.34
2023-01-08T03:06:54.860Z,100170.59
2023-01-08T03:11:55.437Z,100183.72
2023-01-08T03:16:55.141Z,100186.25
2023-01-08T03:21:49.720Z,100162.06
2023-01-08T03:26:45.942Z,100151.59
2023-01-08T03:31:37.802Z,100164.72
2023-01-08T03:36:32.517Z,100182.06
2023-01-08T03:41:27.351Z,100188.94
2023-01-08T03:46:33.911Z,100156.47
2023-01-08T03:51:24.420Z,100186.13
2023-01-08T03:56:15.841Z,100176.75
2023-01-08T04:01:06.900Z,100183.00
2023-01-08T04:06:02.931Z,100171.78
2023-01-08T04:11:02.086Z,100187.47
2023-01-08T04:15:52.580Z,100155.34
2023-01-08T04:20:43.959Z,100122.78
2023-01-08T04:25:36.386Z,100151.78
2023-01-08T04:30:30.017Z,100155.56
2023-01-08T04:35:21.442Z,100146.09
2023-01-08T04:40:16.360Z,100141.03
2023-01-08T04:45:17.024Z,100151.50
2023-01-08T04:50:11.665Z,100145.88
2023-01-08T04:55:07.792Z,100139.25
2023-01-08T05:00:03.957Z,100129.81
2023-01-08T05:04:56.779Z,100134.13
2023-01-08T05:09:49.041Z,100133.22
2023-01-08T05:14:38.966Z,100132.41
2023-01-08T05:19:30.441Z,100117.75
2023-01-08T05:24:26.062Z,100134.88
2023-01-08T05:29:19.387Z,100133.94
2023-01-08T05:34:13.579Z,100131.28
2023-01-08T05:39:04.417Z,100134.94
2023-01-08T05:44:01.135Z,100128.81
2023-01-08T05:48:55.441Z,100129.81
2023-01-08T05:53:50.572Z,100138.53
2023-01-08T05:58:43.134Z,100140.25
2023-01-08T06:03:35.589Z,100131.13
2023-01-08T06:08:25.481Z,100132.63
2023-01-08T06:13:19.459Z,100153.41
2023-01-08T06:18:15.621Z,100138.03
2023-01-08T06:23:17.404Z,100140.97
2023-01-08T06:28:09.405Z,100142.56
2023-01-08T06:33:03.429Z,100147.84
2023-01-08T06:37:58.035Z,100148.59
2023-01-08T06:42:53.135Z,100164.25
2023-01-08T06:47:45.402Z,100160.16
2023-01-08T06:52:43.812Z,100155.00
2023-01-08T06:57:35.654Z,100153.03
2023-01-08T07:02:32.398Z,100135.91
2023-01-08T07:07:25.820Z,100138.53
2023-01-08T07:12:17.664Z,100134.22
2023-01-08T07:17:14.584Z,100139.38
2023-01-08T07:22:16.475Z,100136.00
2023-01-08T07:27:20.740Z,100133.56
2023-01-08T07:32:10.703Z,100089.81
2023-01-08T07:37:00.681Z,100138.31
2023-01-08T07:42:00.206Z,100126.09
2023-01-08T07:47:10.820Z,100118.50
2023-01-08T07:52:03.315Z,100129.53
2023-01-08T07:56:58.113Z,100136.63
2023-01-08T08:01:51.992Z,100136.78
2023-01-08T08:06:44.807Z,100129.94
2023-01-08T08:11:39.580Z,100113.53
2023-01-08T08:16:34.821Z,100108.44
2023-01-08T08:21:25.610Z,100102.47
2023-01-08T08:26:20.785Z,100106.72
2023-01-08T08:31:18.115Z,100091.22
2023-01-08T08:36:15.323Z,100101.53
2023-01-08T08:41:11.009Z,100093.72
2023-01-08T08:46:05.533Z,100065.38
2023-01-08T08:50:56.822Z,100078.38
2023-01-08T08:55:51.413Z,100064.59
2023-01-08T09:00:45.416Z,100051.66
2023-01-08T09:05:39.564Z,100060.97
2023-01-08T09:10:31.671Z,100067.03
2023-01-08T09:15:27.179Z,100057.44
2023-01-08T09:20:22.549Z,100061.59
2023-01-08T09:25:22.536Z,100043.34
2023-01-08T09:30:15.410Z,100056.19
2023-01-08T09:35:19.006Z,100058.72
2023-01-08T09:40:17.592Z,100061.13
2023-01-08T09:45:16.223Z,100056.63
2023-01-08T09:50:15.349Z,100048.63
2023-01-08T09:55:09.802Z,100050.41
2023-01-08T10:00:05.601Z,100051.84
2023-01-08T10:05:07.994Z,100049.06
2023-01-08T10:10:00.979Z,100023.19
2023-01-08T10:14:54.344Z,100041.78
2023-01-08T10:19:45.140Z,100037.72
2023-01-08T10:24:43.693Z,100031.69
2023-01-08T10:29:42.334Z,100030.78
2023-01-08T10:34:45.009Z,100029.69
2023-01-08T10:39:39.395Z,100021.13
2023-01-08T10:44:39.574Z,100007.31
2023-01-08T10:49:42.131Z,99999.47
2023-01-08T10:54:49.756Z,99987.19
2023-01-08T10:59:48.966Z,99986.28
2023-01-08T11:04:44.676Z,99980.09
2023-01-08T11:09:38.220Z,99974.66
2023-01-08T11:14:34.911Z,99969.47
2023-01-08T11:19:34.288Z,99967.59
2023-01-08T11:24:32.552Z,99975.34
2023-01-08T11:29:48.077Z,99968.84
2023-01-08T11:35:04.760Z,99963.97
2023-01-08T11:40:05.502Z,99932.22
2023-01-08T11:45:17.954Z,99869.59
2023-01-08T11:50:27.714Z,99935.13
2023-01-08T11:55:35.158Z,99934.03
2023-01-08T12:00:49.293Z,99938.41
2023-01-08T12:05:53.181Z,99927.16
2023-01-08T12:16:16.799Z,99917.06
2023-01-08T12:21:22.996Z,99902.66
2023-01-08T12:26:33.003Z,99913.91
2023-01-08T12:32:09.959Z,99883.38
2023-01-08T12:37:15.597Z,99868.44
2023-01-08T12:42:25.769Z,99880.78
2023-01-08T12:47:24.119Z,99871.50
2023-01-08T12:52:25.345Z,99864.97
2023-01-08T12:57:27.663Z,99847.69
2023-01-08T13:02:42.948Z,99849.78
2023-01-08T13:07:48.639Z,99858.34
2023-01-08T13:12:44.921Z,99849.53
2023-01-08T13:17:44.997Z,99854.00
2023-01-08T13:22:54.715Z,99846.66
2023-01-08T13:27:52.278Z,99842.31
2023-01-08T13:32:48.068Z,99838.34
2023-01-08T13:37:53.435Z,99840.53
2023-01-08T13:42:46.649Z,99823.97
2023-01-08T13:47:47.935Z,99820.84
2023-01-08T13:53:02.578Z,99813.88
2023-01-08T13:58:02.121Z,99802.69
2023-01-08T14:02:55.688Z,99794.03
2023-01-08T14:07:53.337Z,99786.84
2023-01-08T14:12:46.409Z,99747.50
2023-01-08T14:17:51.816Z,99761.66
2023-01-08T14:28:05.368Z,99756.41
2023-01-08T14:33:06.219Z,99734.31
2023-01-08T14:38:18.117Z,99736.16
2023-01-08T14:43:42.422Z,99740.53
2023-01-08T14:48:43.853Z,99726.94
2023-01-08T14:53:40.762Z,99718.78
2023-01-08T14:58:45.640Z,99717.56
2023-01-08T15:03:40.563Z,99706.25
2023-01-08T15:08:39.553Z,99707.41
2023-01-08T15:13:40.165Z,99711.75
2023-01-08T15:18:34.675Z,99700.84
2023-01-08T15:23:38.864Z,99700.13
2023-01-08T15:28:32.395Z,99683.84
2023-01-08T15:33:34.751Z,99659.34
2023-01-08T15:38:29.439Z,99673.56
2023-01-08T15:43:23.270Z,99677.06
2023-01-08T15:48:23.606Z,99677.31
2023-01-08T15:53:29.691Z,99670.63
2023-01-08T15:58:30.664Z,99668.28
2023-01-08T16:03:28.424Z,99681.28
2023-01-08T16:08:28.192Z,99683.66
2023-01-08T16:13:27.102Z,99612.06
2023-01-08T16:18:30.385Z,99648.88
2023-01-08T16:23:40.200Z,99659.06
2023-01-08T16:28:37.389Z,99663.22
2023-01-08T16:33:32.738Z,99645.34
2023-01-08T16:38:33.407Z,99650.09
2023-01-08T16:43:30.880Z,99645.69
2023-01-08T16:48:27.899Z,99628.78
2023-01-08T16:53:21.948Z,99619.88
2023-01-08T16:58:34.161Z,99631.13
2023-01-08T17:03:25.225Z,99596.13
2023-01-08T17:08:20.923Z,99610.91
2023-01-08T17:13:26.855Z,99602.41
2023-01-08T17:18:24.471Z,99594.41
2023-01-08T17:23:17.919Z,99594.41
2023-01-08T17:28:09.261Z,99575.69
2023-01-08T17:33:08.481Z,99575.66
2023-01-08T17:38:00.153Z,99568.19
2023-01-08T17:42:51.405Z,99563.19
2023-01-08T17:47:43.322Z,99562.56
2023-01-08T17:52:40.011Z,99553.53
2023-01-08T17:57:33.752Z,99551.06
2023-01-08T18:02:44.891Z,99540.56
2023-01-08T18:07:39.781Z,99527.81
2023-01-08T18:12:43.039Z,99529.44
2023-01-08T18:17:54.373Z,99530.16
2023-01-08T18:22:53.850Z,99518.09
2023-01-08T18:27:43.733Z,99498.16
2023-01-08T18:32:40.095Z,99456.06
2023-01-08T18:37:47.210Z,99491.66
2023-01-08T18:42:44.859Z,99495.16
2023-01-08T18:47:43.434Z,99479.53
2023-01-08T18:52:38.541Z,99474.59
2023-01-08T18:57:39.883Z,99453.16
2023-01-08T19:02:35.163Z,99472.09
2023-01-08T19:07:30.688Z,99458.09
2023-01-08T19:12:27.562Z,99446.88
2023-01-08T19:17:25.606Z,99449.44
2023-01-08T19:22:22.589Z,99438.03
2023-01-08T19:27:18.282Z,99437.56
2023-01-08T19:32:14.103Z,99404.66
2023-01-08T19:37:18.967Z,99396.53
2023-01-08T19:42:30.161Z,99398.84
2023-01-08T19:47:28.525Z,99408.81
2023-01-08T19:52:21.334Z,99382.13
2023-01-08T19:57:17.110Z,99390.44
2023-01-08T20:02:09.627Z,99356.22
2023-01-08T20:12:23.713Z,99375.22
2023-01-08T20:17:19.419Z,99362.31
2023-01-08T20:22:16.017Z,99337.78
2023-01-08T20:27:07.913Z,99352.13
2023-01-08T20:32:06.269Z,99352.19
2023-01-08T20:37:00.955Z,99350.78
2023-01-08T20:42:03.991Z,99346.66
2023-01-08T20:46:55.987Z,99345.31
2023-01-08T20:51:59.216Z,99343.09
2023-01-08T20:56:59.973Z,99326.84
2023-01-08T21:01:58.451Z,99314.94
2023-01-08T21:06:56.607Z,99313.00
2023-01-08T21:11:53.305Z,99300.09
2023-01-08T21:16:50.803Z,99305.94
2023-01-08T21:21:46.094Z,99309.13
2023-01-08T21:26:47.073Z,99312.41
2023-01-08T21:31:41.973Z,99325.59
2023-01-08T21:36:37.220Z,99341.38
2023-01-08T21:41:46.990Z,99339.16
2023-01-08T21:46:46.292Z,99337.47
2023-01-08T21:51:56.815Z,99302.53
2023-01-08T21:56:47.614Z,99310.25
2023-01-08T22:01:40.135Z,99300.06
2023-01-08T22:06:36.195Z,99319.75
2023-01-08T22:11:31.940Z,99288.19
2023-01-08T22:16:26.932Z,99288.94
2023-01-08T22:21:22.799Z,99301.72
2023-01-08T22:26:18.533Z,99298.66
2023-01-08T22:31:15.787Z,99308.94
2023-01-08T22:36:07.541Z,99285.00
2023-01-08T22:40:59.261Z,99306.88
2023-01-08T22:45:58.303Z,99304.53
2023-01-08T22:50:53.970Z,99332.81
2023-01-08T22:55:50.076Z,99335.66
2023-01-08T23:00:42.276Z,99340.84
2023-01-08T23:05:47.273Z,99347.88
2023-01-08T23:10:38.673Z,99353.22
2023-01-08T23:15:35.353Z,99359.97
2023-01-08T23:20:33.169Z,99363.47
2023-01-08T23:25:38.894Z,99371.53
2023-01-08T23:30:33.332Z,99376.66
2023-01-08T23:35:24.245Z,99372.44
2023-01-08T23:40:22.958Z,99376.00
2023-01-08T23:45:31.247Z,99384.13
2023-01-08T23:50:27.088Z,99389.25
2023-01-08T23:55:24.493Z,99393.19
